sensor_id;sensor_type;location;lat;lon;timestamp;temperature;humidity
33994;DHT22;20673;48.980;8.138;2022-09-30T00:00:13;8.90;99.90
33994;DHT22;20673;48.980;8.138;2022-09-30T00:02:39;8.80;99.90
33994;DHT22;20673;48.980;8.138;2022-09-30T00:05:05;8.80;99.90
33994;DHT22;20673;48.980;8.138;2022-09-30T00:07:32;8.70;99.90
33994;DHT22;20673;48.980;8.138;2022-09-30T00:09:58;8.70;99.90
33994;DHT22;20673;48.980;8.138;2022-09-30T00:12:24;8.70;99.90
33994;DHT22;20673;48.980;8.138;2022-09-30T00:14:52;8.60;99.90
33994;DHT22;20673;48.980;8.138;2022-09-30T00:17:19;8.60;99.90
33994;DHT22;20673;48.980;8.138;2022-09-30T00:19:45;8.70;99.90
33994;DHT22;20673;48.980;8.138;2022-09-30T00:22:12;8.80;99.90
33994;DHT22;20673;48.980;8.138;2022-09-30T00:24:38;8.70;99.90
33994;DHT22;20673;48.980;8.138;2022-09-30T00:27:04;8.70;99.90
33994;DHT22;20673;48.980;8.138;2022-09-30T00:29:31;8.60;99.90
33994;DHT22;20673;48.980;8.138;2022-09-30T00:31:57;8.50;99.90
33994;DHT22;20673;48.980;8.138;2022-09-30T00:34:23;8.50;99.90
33994;DHT22;20673;48.980;8.138;2022-09-30T00:36:51;8.40;99.90
33994;DHT22;20673;48.980;8.138;2022-09-30T00:39:24;8.50;99.90
33994;DHT22;20673;48.980;8.138;2022-09-30T00:41:54;8.40;99.90
33994;DHT22;20673;48.980;8.138;2022-09-30T00:44:44;8.50;99.90
33994;DHT22;20673;48.980;8.138;2022-09-30T00:50:42;8.30;99.90
33994;DHT22;20673;48.980;8.138;2022-09-30T00:53:29;8.30;99.90
33994;DHT22;20673;48.980;8.138;2022-09-30T00:58:37;8.10;99.90
33994;DHT22;20673;48.980;8.138;2022-09-30T01:01:23;8.20;99.90
33994;DHT22;20673;48.980;8.138;2022-09-30T01:04:01;8.20;99.90
33994;DHT22;20673;48.980;8.138;2022-09-30T01:06:29;8.20;99.90
33994;DHT22;20673;48.980;8.138;2022-09-30T01:08:56;8.10;99.90
33994;DHT22;20673;48.980;8.138;2022-09-30T01:11:28;8.10;99.90
33994;DHT22;20673;48.980;8.138;2022-09-30T01:14:02;8.10;99.90
33994;DHT22;20673;48.980;8.138;2022-09-30T01:22:17;8.10;99.90
33994;DHT22;20673;48.980;8.138;2022-09-30T01:29:06;7.90;99.90
33994;DHT22;20673;48.980;8.138;2022-09-30T01:34:55;7.80;99.90
33994;DHT22;20673;48.980;8.138;2022-09-30T01:40:02;7.80;99.90
33994;DHT22;20673;48.980;8.138;2022-09-30T01:42:37;7.70;99.90
33994;DHT22;20673;48.980;8.138;2022-09-30T01:45:12;7.70;99.90
33994;DHT22;20673;48.980;8.138;2022-09-30T01:53:30;7.60;99.90
33994;DHT22;20673;48.980;8.138;2022-09-30T02:01:41;7.50;99.90
33994;DHT22;20673;48.980;8.138;2022-09-30T02:04:12;7.50;99.90
33994;DHT22;20673;48.980;8.138;2022-09-30T02:06:42;7.50;99.90
33994;DHT22;20673;48.980;8.138;2022-09-30T02:09:21;7.40;99.90
33994;DHT22;20673;48.980;8.138;2022-09-30T02:11:53;7.40;99.90
33994;DHT22;20673;48.980;8.138;2022-09-30T02:14:36;7.50;99.90
33994;DHT22;20673;48.980;8.138;2022-09-30T02:17:26;7.50;99.90
33994;DHT22;20673;48.980;8.138;2022-09-30T02:20:14;7.50;99.90
33994;DHT22;20673;48.980;8.138;2022-09-30T02:22:51;7.50;99.90
33994;DHT22;20673;48.980;8.138;2022-09-30T02:25:24;7.40;99.90
33994;DHT22;20673;48.980;8.138;2022-09-30T02:27:58;7.40;99.90
33994;DHT22;20673;48.980;8.138;2022-09-30T02:30:29;7.40;99.90
33994;DHT22;20673;48.980;8.138;2022-09-30T02:33:10;7.40;99.90
33994;DHT22;20673;48.980;8.138;2022-09-30T02:35:46;7.50;99.90
33994;DHT22;20673;48.980;8.138;2022-09-30T02:38:17;7.50;99.90
33994;DHT22;20673;48.980;8.138;2022-09-30T02:40:52;7.50;99.90
33994;DHT22;20673;48.980;8.138;2022-09-30T02:43:24;7.50;99.90
33994;DHT22;20673;48.980;8.138;2022-09-30T02:57:40;7.50;99.90
33994;DHT22;20673;48.980;8.138;2022-09-30T03:00:09;7.50;99.90
33994;DHT22;20673;48.980;8.138;2022-09-30T03:02:35;7.50;99.90
33994;DHT22;20673;48.980;8.138;2022-09-30T03:05:02;7.40;99.90
33994;DHT22;20673;48.980;8.138;2022-09-30T03:07:28;7.40;99.90
33994;DHT22;20673;48.980;8.138;2022-09-30T03:09:56;7.40;99.90
33994;DHT22;20673;48.980;8.138;2022-09-30T03:12:44;7.50;99.90
33994;DHT22;20673;48.980;8.138;2022-09-30T03:15:45;7.50;99.90
33994;DHT22;20673;48.980;8.138;2022-09-30T03:19:14;7.50;99.90
33994;DHT22;20673;48.980;8.138;2022-09-30T03:24:47;7.50;99.90
33994;DHT22;20673;48.980;8.138;2022-09-30T03:30:19;7.50;99.90
33994;DHT22;20673;48.980;8.138;2022-09-30T03:35:55;7.60;99.90
33994;DHT22;20673;48.980;8.138;2022-09-30T03:41:34;7.60;99.90
33994;DHT22;20673;48.980;8.138;2022-09-30T03:44:21;7.60;99.90
33994;DHT22;20673;48.980;8.138;2022-09-30T03:46:55;7.60;99.90
33994;DHT22;20673;48.980;8.138;2022-09-30T03:49:35;7.60;99.90
33994;DHT22;20673;48.980;8.138;2022-09-30T03:52:05;7.70;99.90
33994;DHT22;20673;48.980;8.138;2022-09-30T03:54:36;7.70;99.90
33994;DHT22;20673;48.980;8.138;2022-09-30T03:57:15;7.70;99.90
33994;DHT22;20673;48.980;8.138;2022-09-30T03:59:41;7.70;99.90
33994;DHT22;20673;48.980;8.138;2022-09-30T04:02:08;7.60;99.90
33994;DHT22;20673;48.980;8.138;2022-09-30T04:04:36;7.50;99.90
33994;DHT22;20673;48.980;8.138;2022-09-30T04:07:03;7.40;99.90
33994;DHT22;20673;48.980;8.138;2022-09-30T04:09:29;7.40;99.90
33994;DHT22;20673;48.980;8.138;2022-09-30T04:11:55;7.30;99.90
33994;DHT22;20673;48.980;8.138;2022-09-30T04:14:21;7.30;99.90
33994;DHT22;20673;48.980;8.138;2022-09-30T04:16:47;7.30;99.90
33994;DHT22;20673;48.980;8.138;2022-09-30T04:19:13;7.40;99.90
33994;DHT22;20673;48.980;8.138;2022-09-30T04:21:39;7.40;99.90
33994;DHT22;20673;48.980;8.138;2022-09-30T04:24:06;7.40;99.90
33994;DHT22;20673;48.980;8.138;2022-09-30T04:26:32;7.40;99.90
33994;DHT22;20673;48.980;8.138;2022-09-30T04:28:59;7.40;99.90
33994;DHT22;20673;48.980;8.138;2022-09-30T04:31:25;7.40;99.90
33994;DHT22;20673;48.980;8.138;2022-09-30T04:33:51;7.40;99.90
33994;DHT22;20673;48.980;8.138;2022-09-30T04:36:17;7.40;99.90
33994;DHT22;20673;48.980;8.138;2022-09-30T04:38:43;7.40;99.90
33994;DHT22;20673;48.980;8.138;2022-09-30T04:41:12;7.30;99.90
33994;DHT22;20673;48.980;8.138;2022-09-30T04:43:44;7.30;99.90
33994;DHT22;20673;48.980;8.138;2022-09-30T04:46:16;7.30;99.90
33994;DHT22;20673;48.980;8.138;2022-09-30T04:48:45;7.20;99.90
33994;DHT22;20673;48.980;8.138;2022-09-30T04:51:13;7.20;99.90
33994;DHT22;20673;48.980;8.138;2022-09-30T04:53:43;7.30;99.90
33994;DHT22;20673;48.980;8.138;2022-09-30T04:56:11;7.30;99.90
33994;DHT22;20673;48.980;8.138;2022-09-30T04:58:38;7.30;99.90
33994;DHT22;20673;48.980;8.138;2022-09-30T05:01:07;7.30;99.90
33994;DHT22;20673;48.980;8.138;2022-09-30T05:03:35;7.20;99.90
33994;DHT22;20673;48.980;8.138;2022-09-30T05:06:03;7.10;99.90
33994;DHT22;20673;48.980;8.138;2022-09-30T05:08:30;7.10;99.90
33994;DHT22;20673;48.980;8.138;2022-09-30T05:11:05;7.10;99.90
33994;DHT22;20673;48.980;8.138;2022-09-30T05:13:32;7.00;99.90
33994;DHT22;20673;48.980;8.138;2022-09-30T05:16:00;7.00;99.90
33994;DHT22;20673;48.980;8.138;2022-09-30T05:18:28;7.10;99.90
33994;DHT22;20673;48.980;8.138;2022-09-30T05:20:56;7.10;99.90
33994;DHT22;20673;48.980;8.138;2022-09-30T05:23:23;7.10;99.90
33994;DHT22;20673;48.980;8.138;2022-09-30T05:25:51;7.10;99.90
33994;DHT22;20673;48.980;8.138;2022-09-30T05:28:17;7.10;99.90
33994;DHT22;20673;48.980;8.138;2022-09-30T05:30:45;7.00;99.90
33994;DHT22;20673;48.980;8.138;2022-09-30T05:33:12;7.10;99.90
33994;DHT22;20673;48.980;8.138;2022-09-30T05:35:40;7.00;99.90
33994;DHT22;20673;48.980;8.138;2022-09-30T05:38:08;7.00;99.90
33994;DHT22;20673;48.980;8.138;2022-09-30T05:40:39;7.10;99.90
33994;DHT22;20673;48.980;8.138;2022-09-30T05:43:06;7.10;99.90
33994;DHT22;20673;48.980;8.138;2022-09-30T05:45:32;7.10;99.90
33994;DHT22;20673;48.980;8.138;2022-09-30T05:47:59;7.10;99.90
33994;DHT22;20673;48.980;8.138;2022-09-30T05:50:26;7.10;99.90
33994;DHT22;20673;48.980;8.138;2022-09-30T05:52:52;7.20;99.90
33994;DHT22;20673;48.980;8.138;2022-09-30T05:55:19;7.30;99.90
33994;DHT22;20673;48.980;8.138;2022-09-30T05:57:48;7.30;99.90
33994;DHT22;20673;48.980;8.138;2022-09-30T06:00:16;7.20;99.90
33994;DHT22;20673;48.980;8.138;2022-09-30T06:02:43;7.20;99.90
33994;DHT22;20673;48.980;8.138;2022-09-30T06:05:10;7.30;99.90
33994;DHT22;20673;48.980;8.138;2022-09-30T06:07:38;7.30;99.90
33994;DHT22;20673;48.980;8.138;2022-09-30T06:10:06;7.30;99.90
33994;DHT22;20673;48.980;8.138;2022-09-30T06:12:35;7.40;99.90
33994;DHT22;20673;48.980;8.138;2022-09-30T06:15:04;7.40;99.90
33994;DHT22;20673;48.980;8.138;2022-09-30T06:17:31;7.50;99.90
33994;DHT22;20673;48.980;8.138;2022-09-30T06:19:57;7.50;99.90
33994;DHT22;20673;48.980;8.138;2022-09-30T06:22:23;7.60;99.90
33994;DHT22;20673;48.980;8.138;2022-09-30T06:24:49;7.60;99.90
33994;DHT22;20673;48.980;8.138;2022-09-30T06:27:16;7.60;99.90
33994;DHT22;20673;48.980;8.138;2022-09-30T06:29:42;7.70;99.90
33994;DHT22;20673;48.980;8.138;2022-09-30T06:32:08;7.70;99.90
33994;DHT22;20673;48.980;8.138;2022-09-30T06:34:34;7.80;99.90
33994;DHT22;20673;48.980;8.138;2022-09-30T06:37:00;7.80;99.90
33994;DHT22;20673;48.980;8.138;2022-09-30T06:39:26;7.80;99.90
33994;DHT22;20673;48.980;8.138;2022-09-30T06:41:53;7.90;99.90
33994;DHT22;20673;48.980;8.138;2022-09-30T06:44:20;8.00;99.90
33994;DHT22;20673;48.980;8.138;2022-09-30T06:46:47;8.10;99.90
33994;DHT22;20673;48.980;8.138;2022-09-30T06:49:13;8.10;99.90
33994;DHT22;20673;48.980;8.138;2022-09-30T06:51:39;8.20;99.90
33994;DHT22;20673;48.980;8.138;2022-09-30T06:54:05;8.40;99.90
33994;DHT22;20673;48.980;8.138;2022-09-30T06:56:34;8.40;99.90
33994;DHT22;20673;48.980;8.138;2022-09-30T06:59:00;8.50;99.90
33994;DHT22;20673;48.980;8.138;2022-09-30T07:01:26;8.50;99.90
33994;DHT22;20673;48.980;8.138;2022-09-30T07:03:54;8.60;99.90
33994;DHT22;20673;48.980;8.138;2022-09-30T07:06:23;8.70;99.90
33994;DHT22;20673;48.980;8.138;2022-09-30T07:08:51;8.70;99.90
33994;DHT22;20673;48.980;8.138;2022-09-30T07:11:18;8.80;99.90
33994;DHT22;20673;48.980;8.138;2022-09-30T07:13:48;8.90;99.90
33994;DHT22;20673;48.980;8.138;2022-09-30T07:16:16;9.00;99.90
33994;DHT22;20673;48.980;8.138;2022-09-30T07:18:44;9.00;99.90
33994;DHT22;20673;48.980;8.138;2022-09-30T07:21:12;9.10;99.90
33994;DHT22;20673;48.980;8.138;2022-09-30T07:23:41;9.20;99.90
33994;DHT22;20673;48.980;8.138;2022-09-30T07:26:15;9.20;99.90
33994;DHT22;20673;48.980;8.138;2022-09-30T07:28:43;9.40;99.90
33994;DHT22;20673;48.980;8.138;2022-09-30T07:31:12;9.50;99.90
33994;DHT22;20673;48.980;8.138;2022-09-30T07:33:42;9.60;99.90
33994;DHT22;20673;48.980;8.138;2022-09-30T07:36:10;9.70;99.90
33994;DHT22;20673;48.980;8.138;2022-09-30T07:38:40;9.70;99.90
33994;DHT22;20673;48.980;8.138;2022-09-30T07:41:19;9.70;99.90
33994;DHT22;20673;48.980;8.138;2022-09-30T07:43:53;9.70;99.90
33994;DHT22;20673;48.980;8.138;2022-09-30T07:46:25;9.70;99.90
33994;DHT22;20673;48.980;8.138;2022-09-30T07:48:56;9.70;99.90
33994;DHT22;20673;48.980;8.138;2022-09-30T07:51:36;9.70;99.90
33994;DHT22;20673;48.980;8.138;2022-09-30T07:54:13;9.70;99.90
33994;DHT22;20673;48.980;8.138;2022-09-30T07:56:41;9.80;99.90
33994;DHT22;20673;48.980;8.138;2022-09-30T07:59:09;10.00;99.90
33994;DHT22;20673;48.980;8.138;2022-09-30T08:01:37;10.10;99.90
33994;DHT22;20673;48.980;8.138;2022-09-30T08:04:06;10.10;99.90
33994;DHT22;20673;48.980;8.138;2022-09-30T08:06:39;10.30;99.90
33994;DHT22;20673;48.980;8.138;2022-09-30T08:09:08;10.60;99.90
33994;DHT22;20673;48.980;8.138;2022-09-30T08:11:35;10.70;99.90
33994;DHT22;20673;48.980;8.138;2022-09-30T08:14:03;10.80;99.90
33994;DHT22;20673;48.980;8.138;2022-09-30T08:16:30;10.90;99.90
33994;DHT22;20673;48.980;8.138;2022-09-30T08:18:58;11.10;99.90
33994;DHT22;20673;48.980;8.138;2022-09-30T08:21:27;11.30;99.90
33994;DHT22;20673;48.980;8.138;2022-09-30T08:23:54;11.40;99.90
33994;DHT22;20673;48.980;8.138;2022-09-30T08:26:20;11.60;99.90
33994;DHT22;20673;48.980;8.138;2022-09-30T08:28:46;11.80;99.90
33994;DHT22;20673;48.980;8.138;2022-09-30T08:31:16;11.90;99.90
33994;DHT22;20673;48.980;8.138;2022-09-30T08:33:44;11.80;99.90
33994;DHT22;20673;48.980;8.138;2022-09-30T08:36:16;11.70;99.90
33994;DHT22;20673;48.980;8.138;2022-09-30T08:38:44;11.70;99.90
33994;DHT22;20673;48.980;8.138;2022-09-30T08:44:08;11.50;99.90
33994;DHT22;20673;48.980;8.138;2022-09-30T08:47:02;11.50;99.90
33994;DHT22;20673;48.980;8.138;2022-09-30T08:52:53;11.80;99.90
33994;DHT22;20673;48.980;8.138;2022-09-30T08:55:25;12.00;99.90
33994;DHT22;20673;48.980;8.138;2022-09-30T08:58:01;12.10;99.90
33994;DHT22;20673;48.980;8.138;2022-09-30T09:00:29;12.20;99.90
33994;DHT22;20673;48.980;8.138;2022-09-30T09:02:59;12.20;99.90
33994;DHT22;20673;48.980;8.138;2022-09-30T09:08:04;12.30;99.90
33994;DHT22;20673;48.980;8.138;2022-09-30T09:10:46;12.30;99.90
33994;DHT22;20673;48.980;8.138;2022-09-30T09:16:20;12.20;99.90
33994;DHT22;20673;48.980;8.138;2022-09-30T09:21:53;12.00;99.90
33994;DHT22;20673;48.980;8.138;2022-09-30T09:24:27;12.40;99.90
33994;DHT22;20673;48.980;8.138;2022-09-30T09:26:57;13.40;99.90
33994;DHT22;20673;48.980;8.138;2022-09-30T09:29:42;13.70;99.90
33994;DHT22;20673;48.980;8.138;2022-09-30T09:32:26;14.00;99.90
33994;DHT22;20673;48.980;8.138;2022-09-30T09:34:59;14.30;99.90
33994;DHT22;20673;48.980;8.138;2022-09-30T09:40:45;15.20;99.90
33994;DHT22;20673;48.980;8.138;2022-09-30T09:43:20;15.50;99.90
33994;DHT22;20673;48.980;8.138;2022-09-30T09:45:53;16.20;99.90
33994;DHT22;20673;48.980;8.138;2022-09-30T09:48:23;16.00;99.90
33994;DHT22;20673;48.980;8.138;2022-09-30T09:50:59;15.70;99.90
33994;DHT22;20673;48.980;8.138;2022-09-30T09:53:46;15.50;99.90
33994;DHT22;20673;48.980;8.138;2022-09-30T09:56:21;16.00;99.90
33994;DHT22;20673;48.980;8.138;2022-09-30T09:59:13;16.30;99.90
33994;DHT22;20673;48.980;8.138;2022-09-30T10:01:44;17.10;99.90
33994;DHT22;20673;48.980;8.138;2022-09-30T10:04:18;17.20;99.90
33994;DHT22;20673;48.980;8.138;2022-09-30T10:07:01;18.50;99.90
33994;DHT22;20673;48.980;8.138;2022-09-30T10:09:40;18.60;99.90
33994;DHT22;20673;48.980;8.138;2022-09-30T10:17:27;18.60;99.90
33994;DHT22;20673;48.980;8.138;2022-09-30T10:20:29;19.10;99.90
33994;DHT22;20673;48.980;8.138;2022-09-30T10:23:09;19.30;99.90
33994;DHT22;20673;48.980;8.138;2022-09-30T10:25:37;18.90;99.90
33994;DHT22;20673;48.980;8.138;2022-09-30T10:28:18;19.30;99.90
33994;DHT22;20673;48.980;8.138;2022-09-30T10:30:58;19.80;99.90
33994;DHT22;20673;48.980;8.138;2022-09-30T10:33:39;20.50;99.90
33994;DHT22;20673;48.980;8.138;2022-09-30T10:36:18;20.90;99.90
33994;DHT22;20673;48.980;8.138;2022-09-30T10:39:18;20.10;99.90
33994;DHT22;20673;48.980;8.138;2022-09-30T10:41:44;19.60;99.90
33994;DHT22;20673;48.980;8.138;2022-09-30T10:44:19;20.50;99.90
33994;DHT22;20673;48.980;8.138;2022-09-30T10:46:49;19.60;99.90
33994;DHT22;20673;48.980;8.138;2022-09-30T10:49:38;19.00;99.90
33994;DHT22;20673;48.980;8.138;2022-09-30T10:52:02;19.40;99.90
33994;DHT22;20673;48.980;8.138;2022-09-30T10:57:20;21.20;99.90
33994;DHT22;20673;48.980;8.138;2022-09-30T10:59:50;21.30;99.90
33994;DHT22;20673;48.980;8.138;2022-09-30T11:02:33;21.20;99.90
33994;DHT22;20673;48.980;8.138;2022-09-30T11:05:15;21.30;99.90
33994;DHT22;20673;48.980;8.138;2022-09-30T11:19:47;21.00;99.90
33994;DHT22;20673;48.980;8.138;2022-09-30T11:22:35;20.90;99.90
33994;DHT22;20673;48.980;8.138;2022-09-30T11:25:11;21.50;99.90
33994;DHT22;20673;48.980;8.138;2022-09-30T11:30:39;21.80;99.90
33994;DHT22;20673;48.980;8.138;2022-09-30T11:42:03;22.00;99.90
33994;DHT22;20673;48.980;8.138;2022-09-30T11:44:44;22.00;99.90
33994;DHT22;20673;48.980;8.138;2022-09-30T11:47:55;21.90;99.90
33994;DHT22;20673;48.980;8.138;2022-09-30T11:50:14;21.70;99.90
33994;DHT22;20673;48.980;8.138;2022-09-30T11:52:53;21.60;99.90
33994;DHT22;20673;48.980;8.138;2022-09-30T11:58:10;21.40;99.90
33994;DHT22;20673;48.980;8.138;2022-09-30T12:00:41;21.50;99.90
33994;DHT22;20673;48.980;8.138;2022-09-30T12:03:19;21.30;99.90
33994;DHT22;20673;48.980;8.138;2022-09-30T12:05:53;21.90;99.90
33994;DHT22;20673;48.980;8.138;2022-09-30T12:08:36;22.30;99.90
33994;DHT22;20673;48.980;8.138;2022-09-30T12:11:20;22.30;99.90
33994;DHT22;20673;48.980;8.138;2022-09-30T12:13:56;22.40;99.90
33994;DHT22;20673;48.980;8.138;2022-09-30T12:16:27;22.30;99.90
33994;DHT22;20673;48.980;8.138;2022-09-30T12:19:18;21.80;99.90
33994;DHT22;20673;48.980;8.138;2022-09-30T12:24:24;22.10;99.90
33994;DHT22;20673;48.980;8.138;2022-09-30T12:27:00;22.30;99.90
33994;DHT22;20673;48.980;8.138;2022-09-30T12:29:47;22.50;99.90
33994;DHT22;20673;48.980;8.138;2022-09-30T12:33:00;22.70;99.90
33994;DHT22;20673;48.980;8.138;2022-09-30T12:35:55;22.80;99.90
33994;DHT22;20673;48.980;8.138;2022-09-30T12:41:52;23.00;99.90
33994;DHT22;20673;48.980;8.138;2022-09-30T12:50:07;22.70;99.90
33994;DHT22;20673;48.980;8.138;2022-09-30T12:52:35;22.90;99.90
33994;DHT22;20673;48.980;8.138;2022-09-30T12:55:24;23.00;99.90
33994;DHT22;20673;48.980;8.138;2022-09-30T12:58:00;23.40;99.90
33994;DHT22;20673;48.980;8.138;2022-09-30T13:00:30;23.30;99.90
33994;DHT22;20673;48.980;8.138;2022-09-30T13:03:08;23.80;99.90
33994;DHT22;20673;48.980;8.138;2022-09-30T13:10:56;23.30;99.90
33994;DHT22;20673;48.980;8.138;2022-09-30T13:13:26;24.00;99.90
33994;DHT22;20673;48.980;8.138;2022-09-30T13:16:00;24.20;99.90
33994;DHT22;20673;48.980;8.138;2022-09-30T13:23:40;22.20;99.90
33994;DHT22;20673;48.980;8.138;2022-09-30T13:26:32;21.30;99.90
33994;DHT22;20673;48.980;8.138;2022-09-30T13:32:28;22.00;99.90
33994;DHT22;20673;48.980;8.138;2022-09-30T13:34:21;22.40;99.90
33994;DHT22;20673;48.980;8.138;2022-09-30T13:36:57;21.90;99.90
33994;DHT22;20673;48.980;8.138;2022-09-30T13:39:42;21.40;99.90
33994;DHT22;20673;48.980;8.138;2022-09-30T13:42:26;20.90;99.90
33994;DHT22;20673;48.980;8.138;2022-09-30T13:44:59;20.40;99.90
33994;DHT22;20673;48.980;8.138;2022-09-30T13:47:38;20.10;99.90
33994;DHT22;20673;48.980;8.138;2022-09-30T13:50:32;19.80;99.90
33994;DHT22;20673;48.980;8.138;2022-09-30T13:52:59;19.90;99.90
33994;DHT22;20673;48.980;8.138;2022-09-30T13:55:37;20.20;99.90
33994;DHT22;20673;48.980;8.138;2022-09-30T14:04:42;20.60;99.90
33994;DHT22;20673;48.980;8.138;2022-09-30T14:07:23;20.60;99.90
33994;DHT22;20673;48.980;8.138;2022-09-30T14:10:30;20.40;99.90
33994;DHT22;20673;48.980;8.138;2022-09-30T14:13:20;20.00;99.90
33994;DHT22;20673;48.980;8.138;2022-09-30T14:21:55;19.80;99.90
33994;DHT22;20673;48.980;8.138;2022-09-30T14:24:25;20.50;99.90
33994;DHT22;20673;48.980;8.138;2022-09-30T14:30:10;21.10;99.90
33994;DHT22;20673;48.980;8.138;2022-09-30T14:35:29;22.00;99.90
33994;DHT22;20673;48.980;8.138;2022-09-30T14:40:33;22.40;99.90
33994;DHT22;20673;48.980;8.138;2022-09-30T14:43:03;22.20;99.90
33994;DHT22;20673;48.980;8.138;2022-09-30T14:45:34;22.90;99.90
33994;DHT22;20673;48.980;8.138;2022-09-30T14:48:15;22.90;99.90
33994;DHT22;20673;48.980;8.138;2022-09-30T14:53:37;22.30;99.90
33994;DHT22;20673;48.980;8.138;2022-09-30T14:56:20;22.60;99.90
33994;DHT22;20673;48.980;8.138;2022-09-30T14:58:49;22.70;99.90
33994;DHT22;20673;48.980;8.138;2022-09-30T15:01:19;23.00;99.90
33994;DHT22;20673;48.980;8.138;2022-09-30T15:03:56;23.20;99.90
33994;DHT22;20673;48.980;8.138;2022-09-30T15:06:27;23.50;99.90
33994;DHT22;20673;48.980;8.138;2022-09-30T15:09:04;22.90;99.90
33994;DHT22;20673;48.980;8.138;2022-09-30T15:11:33;22.50;99.90
33994;DHT22;20673;48.980;8.138;2022-09-30T15:14:06;22.90;99.90
33994;DHT22;20673;48.980;8.138;2022-09-30T15:16:43;22.50;99.90
33994;DHT22;20673;48.980;8.138;2022-09-30T15:19:31;22.40;99.90
33994;DHT22;20673;48.980;8.138;2022-09-30T15:21:57;22.80;99.90
33994;DHT22;20673;48.980;8.138;2022-09-30T15:24:27;22.50;99.90
33994;DHT22;20673;48.980;8.138;2022-09-30T15:26:57;22.80;99.90
33994;DHT22;20673;48.980;8.138;2022-09-30T15:29:25;23.00;99.90
33994;DHT22;20673;48.980;8.138;2022-09-30T15:34:27;23.30;99.90
33994;DHT22;20673;48.980;8.138;2022-09-30T15:36:58;23.30;99.90
33994;DHT22;20673;48.980;8.138;2022-09-30T15:39:28;22.80;99.90
33994;DHT22;20673;48.980;8.138;2022-09-30T15:41:58;23.00;99.90
33994;DHT22;20673;48.980;8.138;2022-09-30T15:44:36;22.90;99.90
33994;DHT22;20673;48.980;8.138;2022-09-30T15:47:05;23.10;99.90
33994;DHT22;20673;48.980;8.138;2022-09-30T15:54:57;22.10;99.90
33994;DHT22;20673;48.980;8.138;2022-09-30T15:57:47;22.30;99.90
33994;DHT22;20673;48.980;8.138;2022-09-30T16:00:36;21.80;99.90
33994;DHT22;20673;48.980;8.138;2022-09-30T16:05:46;21.10;99.90
33994;DHT22;20673;48.980;8.138;2022-09-30T16:08:22;20.80;99.90
33994;DHT22;20673;48.980;8.138;2022-09-30T16:10:53;20.40;99.90
33994;DHT22;20673;48.980;8.138;2022-09-30T16:13:25;20.10;99.90
33994;DHT22;20673;48.980;8.138;2022-09-30T16:15:55;19.70;99.90
33994;DHT22;20673;48.980;8.138;2022-09-30T16:18:25;19.40;99.90
33994;DHT22;20673;48.980;8.138;2022-09-30T16:21:02;18.90;99.90
33994;DHT22;20673;48.980;8.138;2022-09-30T16:23:35;18.70;99.90
33994;DHT22;20673;48.980;8.138;2022-09-30T16:26:20;18.40;99.90
33994;DHT22;20673;48.980;8.138;2022-09-30T16:28:50;17.90;99.90
33994;DHT22;20673;48.980;8.138;2022-09-30T16:31:17;17.50;99.90
33994;DHT22;20673;48.980;8.138;2022-09-30T16:33:44;17.20;99.90
33994;DHT22;20673;48.980;8.138;2022-09-30T16:36:11;17.30;99.90
33994;DHT22;20673;48.980;8.138;2022-09-30T16:38:39;16.90;99.90
33994;DHT22;20673;48.980;8.138;2022-09-30T16:41:11;16.40;99.90
33994;DHT22;20673;48.980;8.138;2022-09-30T16:43:38;16.10;99.90
33994;DHT22;20673;48.980;8.138;2022-09-30T16:46:05;15.80;99.90
33994;DHT22;20673;48.980;8.138;2022-09-30T16:48:33;15.70;99.90
33994;DHT22;20673;48.980;8.138;2022-09-30T16:51:14;15.60;99.90
33994;DHT22;20673;48.980;8.138;2022-09-30T16:53:42;15.10;99.90
33994;DHT22;20673;48.980;8.138;2022-09-30T16:56:16;14.80;99.90
33994;DHT22;20673;48.980;8.138;2022-09-30T16:58:45;14.50;99.90
33994;DHT22;20673;48.980;8.138;2022-09-30T17:01:19;14.30;99.90
33994;DHT22;20673;48.980;8.138;2022-09-30T17:03:47;14.00;99.90
33994;DHT22;20673;48.980;8.138;2022-09-30T17:06:19;13.80;99.90
33994;DHT22;20673;48.980;8.138;2022-09-30T17:08:48;13.60;99.90
33994;DHT22;20673;48.980;8.138;2022-09-30T17:11:14;13.40;99.90
33994;DHT22;20673;48.980;8.138;2022-09-30T17:13:41;13.30;99.90
33994;DHT22;20673;48.980;8.138;2022-09-30T17:16:08;13.30;99.90
33994;DHT22;20673;48.980;8.138;2022-09-30T17:18:34;13.20;99.90
33994;DHT22;20673;48.980;8.138;2022-09-30T17:21:00;13.10;99.90
33994;DHT22;20673;48.980;8.138;2022-09-30T17:23:26;12.90;99.90
33994;DHT22;20673;48.980;8.138;2022-09-30T17:25:53;12.70;99.90
33994;DHT22;20673;48.980;8.138;2022-09-30T17:28:19;12.70;99.90
33994;DHT22;20673;48.980;8.138;2022-09-30T17:30:47;12.60;99.90
33994;DHT22;20673;48.980;8.138;2022-09-30T17:33:14;12.40;99.90
33994;DHT22;20673;48.980;8.138;2022-09-30T17:35:41;12.40;99.90
33994;DHT22;20673;48.980;8.138;2022-09-30T17:38:10;12.40;99.90
33994;DHT22;20673;48.980;8.138;2022-09-30T17:40:38;12.50;99.90
33994;DHT22;20673;48.980;8.138;2022-09-30T17:43:23;12.50;99.90
33994;DHT22;20673;48.980;8.138;2022-09-30T17:45:49;12.30;99.90
33994;DHT22;20673;48.980;8.138;2022-09-30T17:48:17;12.20;99.90
33994;DHT22;20673;48.980;8.138;2022-09-30T17:50:45;12.00;99.90
33994;DHT22;20673;48.980;8.138;2022-09-30T17:53:14;11.90;99.90
33994;DHT22;20673;48.980;8.138;2022-09-30T17:55:42;11.80;99.90
33994;DHT22;20673;48.980;8.138;2022-09-30T17:58:11;11.80;99.90
33994;DHT22;20673;48.980;8.138;2022-09-30T18:00:39;11.70;99.90
33994;DHT22;20673;48.980;8.138;2022-09-30T18:03:06;11.50;99.90
33994;DHT22;20673;48.980;8.138;2022-09-30T18:05:34;11.50;99.90
33994;DHT22;20673;48.980;8.138;2022-09-30T18:08:01;11.50;99.90
33994;DHT22;20673;48.980;8.138;2022-09-30T18:10:28;11.40;99.90
33994;DHT22;20673;48.980;8.138;2022-09-30T18:12:54;11.30;99.90
33994;DHT22;20673;48.980;8.138;2022-09-30T18:15:21;11.40;99.90
33994;DHT22;20673;48.980;8.138;2022-09-30T18:17:48;11.30;99.90
33994;DHT22;20673;48.980;8.138;2022-09-30T18:20:15;11.30;99.90
33994;DHT22;20673;48.980;8.138;2022-09-30T18:22:43;11.10;99.90
33994;DHT22;20673;48.980;8.138;2022-09-30T18:25:15;11.00;99.90
33994;DHT22;20673;48.980;8.138;2022-09-30T18:27:55;10.90;99.90
33994;DHT22;20673;48.980;8.138;2022-09-30T18:30:23;10.80;99.90
33994;DHT22;20673;48.980;8.138;2022-09-30T18:32:52;10.60;99.90
33994;DHT22;20673;48.980;8.138;2022-09-30T18:35:21;10.50;99.90
33994;DHT22;20673;48.980;8.138;2022-09-30T18:37:49;10.50;99.90
33994;DHT22;20673;48.980;8.138;2022-09-30T18:40:21;10.70;99.90
33994;DHT22;20673;48.980;8.138;2022-09-30T18:42:52;10.60;99.90
33994;DHT22;20673;48.980;8.138;2022-09-30T18:45:20;10.50;99.90
33994;DHT22;20673;48.980;8.138;2022-09-30T18:47:47;10.40;99.90
33994;DHT22;20673;48.980;8.138;2022-09-30T18:50:14;10.30;99.90
33994;DHT22;20673;48.980;8.138;2022-09-30T18:52:42;10.30;99.90
33994;DHT22;20673;48.980;8.138;2022-09-30T18:55:08;10.20;99.90
33994;DHT22;20673;48.980;8.138;2022-09-30T18:57:35;10.10;99.90